createdAt,value
2017-12-13T00:01:59.727Z,9.60
2017-12-13T00:04:25.999Z,7.90
2017-12-13T00:06:52.319Z,14.07
2017-12-13T00:09:18.586Z,7.83
2017-12-13T00:11:44.856Z,9.97
2017-12-13T00:14:11.881Z,11.90
2017-12-13T00:16:38.190Z,7.80
2017-12-13T00:19:04.441Z,8.13
2017-12-13T00:21:32.553Z,8.57
2017-12-13T00:24:02.342Z,7.23
2017-12-13T00:26:29.028Z,7.20
2017-12-13T00:28:58.767Z,7.23
2017-12-13T00:31:25.775Z,10.50
2017-12-13T00:33:52.025Z,6.33
2017-12-13T00:36:18.394Z,8.43
2017-12-13T00:38:44.650Z,5.90
2017-12-13T00:41:10.911Z,7.33
2017-12-13T00:43:37.182Z,6.27
2017-12-13T00:46:03.436Z,6.63
2017-12-13T00:48:29.713Z,12.97
2017-12-13T00:50:56.002Z,8.67
2017-12-13T00:53:22.261Z,7.13
2017-12-13T00:55:48.536Z,9.87
2017-12-13T00:58:15.575Z,6.33
2017-12-13T01:00:42.614Z,6.57
2017-12-13T01:03:08.886Z,6.73
2017-12-13T01:05:35.215Z,6.83
2017-12-13T01:08:01.578Z,8.07
2017-12-13T01:10:27.866Z,6.50
2017-12-13T01:12:54.898Z,7.00
2017-12-13T01:15:21.890Z,6.17
2017-12-13T01:17:48.132Z,6.77
2017-12-13T01:20:14.432Z,6.53
2017-12-13T01:22:40.718Z,11.53
2017-12-13T01:25:06.980Z,6.43
2017-12-13T01:27:34.023Z,8.00
2017-12-13T01:30:01.029Z,7.27
2017-12-13T01:32:27.312Z,6.97
2017-12-13T01:34:53.610Z,7.03
2017-12-13T01:37:19.875Z,7.30
2017-12-13T01:39:46.135Z,10.53
2017-12-13T01:42:12.443Z,9.67
2017-12-13T01:44:45.385Z,7.10
2017-12-13T01:47:12.519Z,8.37
2017-12-13T01:49:38.806Z,7.43
2017-12-13T01:52:05.098Z,7.67
2017-12-13T01:54:33.804Z,9.80
2017-12-13T01:57:02.632Z,7.37
2017-12-13T01:59:31.835Z,10.30
2017-12-13T02:02:01.116Z,7.97
2017-12-13T02:04:27.431Z,8.67
2017-12-13T02:06:53.732Z,8.40
2017-12-13T02:09:20.063Z,6.73
2017-12-13T02:11:46.331Z,7.03
2017-12-13T02:14:13.337Z,6.73
2017-12-13T02:16:39.631Z,8.50
2017-12-13T02:19:05.926Z,6.93
2017-12-13T02:21:32.226Z,7.37
2017-12-13T02:23:58.561Z,8.77
2017-12-13T02:26:24.826Z,6.17
2017-12-13T02:28:51.088Z,11.60
2017-12-13T02:31:17.381Z,9.80
2017-12-13T02:33:43.629Z,9.60
2017-12-13T02:36:09.911Z,7.93
2017-12-13T02:38:36.956Z,10.40
2017-12-13T02:41:03.967Z,9.97
2017-12-13T02:43:30.236Z,8.23
2017-12-13T02:45:56.524Z,11.53
2017-12-13T02:48:23.527Z,10.47
2017-12-13T02:50:49.791Z,14.30
2017-12-13T02:53:16.118Z,12.37
2017-12-13T02:55:42.452Z,10.30
2017-12-13T02:58:08.718Z,11.07
2017-12-13T03:00:35.029Z,11.93
2017-12-13T03:03:02.046Z,12.23
2017-12-13T03:05:28.347Z,13.83
2017-12-13T03:07:54.670Z,14.27
2017-12-13T03:10:20.966Z,14.07
2017-12-13T03:12:47.242Z,9.60
2017-12-13T03:15:13.618Z,11.63
2017-12-13T03:17:39.914Z,10.40
2017-12-13T03:20:06.227Z,12.77
2017-12-13T03:22:32.590Z,12.93
2017-12-13T03:24:59.612Z,14.63
2017-12-13T03:27:26.624Z,23.13
2017-12-13T03:29:52.922Z,15.33
2017-12-13T03:32:19.197Z,17.67
2017-12-13T03:34:45.454Z,13.77
2017-12-13T03:37:11.934Z,18.47
2017-12-13T03:39:38.189Z,11.93
2017-12-13T03:42:04.458Z,20.10
2017-12-13T03:44:30.739Z,16.03
2017-12-13T03:46:56.999Z,22.00
2017-12-13T03:49:23.267Z,20.63
2017-12-13T03:51:49.563Z,18.27
2017-12-13T03:54:15.832Z,16.00
2017-12-13T03:56:42.095Z,17.00
2017-12-13T03:59:08.374Z,16.60
2017-12-13T04:01:34.629Z,11.60
2017-12-13T04:04:00.899Z,13.70
2017-12-13T04:06:27.240Z,14.57
2017-12-13T04:08:53.534Z,17.30
2017-12-13T04:11:19.824Z,13.17
2017-12-13T04:13:46.862Z,11.17
2017-12-13T04:16:13.881Z,14.73
2017-12-13T04:18:40.903Z,9.93
2017-12-13T04:21:07.191Z,18.07
2017-12-13T04:23:33.463Z,14.63
2017-12-13T04:25:59.723Z,14.60
2017-12-13T04:28:26.036Z,16.27
2017-12-13T04:30:52.368Z,13.03
2017-12-13T04:33:18.633Z,10.40
2017-12-13T04:35:44.924Z,9.00
2017-12-13T04:38:11.942Z,15.80
2017-12-13T04:40:38.200Z,13.53
2017-12-13T04:43:04.499Z,13.87
2017-12-13T04:45:30.765Z,11.47
2017-12-13T04:47:57.058Z,13.67
2017-12-13T04:50:23.362Z,16.43
2017-12-13T04:52:49.614Z,20.93
2017-12-13T04:55:15.887Z,22.83
2017-12-13T04:57:42.182Z,15.33
2017-12-13T05:00:09.208Z,17.47
2017-12-13T05:02:36.249Z,16.50
2017-12-13T05:05:03.302Z,18.93
2017-12-13T05:07:29.590Z,14.13
2017-12-13T05:09:56.616Z,18.13
2017-12-13T05:12:22.944Z,13.57
2017-12-13T05:14:49.981Z,15.50
2017-12-13T05:17:16.276Z,24.90
2017-12-13T05:19:42.576Z,20.87
2017-12-13T05:22:08.847Z,16.33
2017-12-13T05:24:35.159Z,18.97
2017-12-13T05:27:01.458Z,15.93
2017-12-13T05:29:27.713Z,19.83
2017-12-13T05:31:54.007Z,23.30
2017-12-13T05:34:20.311Z,21.07
2017-12-13T05:36:46.591Z,18.23
2017-12-13T05:39:12.880Z,15.90
2017-12-13T05:41:39.925Z,15.17
2017-12-13T05:44:06.191Z,18.73
2017-12-13T05:46:32.458Z,17.80
2017-12-13T05:48:58.756Z,19.07
2017-12-13T05:51:25.780Z,15.20
2017-12-13T05:53:52.946Z,20.13
2017-12-13T05:56:19.255Z,16.20
2017-12-13T05:58:45.523Z,16.57
2017-12-13T06:01:11.803Z,12.77
2017-12-13T06:03:38.104Z,13.43
2017-12-13T06:06:04.393Z,13.83
2017-12-13T06:08:31.403Z,18.70
2017-12-13T06:10:57.696Z,12.53
2017-12-13T06:13:23.959Z,16.93
2017-12-13T06:15:50.962Z,15.07
2017-12-13T06:18:17.286Z,23.03
2017-12-13T06:20:43.660Z,23.97
2017-12-13T06:23:10.000Z,13.67
2017-12-13T06:25:36.294Z,23.93
2017-12-13T06:28:02.552Z,12.50
2017-12-13T06:30:29.212Z,13.80
2017-12-13T06:32:55.582Z,18.07
2017-12-13T06:35:22.564Z,16.57
2017-12-13T06:37:48.872Z,18.13
2017-12-13T06:40:15.192Z,18.93
2017-12-13T06:42:41.546Z,17.23
2017-12-13T06:45:07.835Z,14.30
2017-12-13T06:47:34.476Z,13.00
2017-12-13T06:50:00.775Z,15.27
2017-12-13T06:52:27.067Z,9.63
2017-12-13T06:54:54.103Z,14.27
2017-12-13T06:57:21.115Z,15.33
2017-12-13T06:59:48.141Z,14.30
2017-12-13T07:02:14.539Z,17.13
2017-12-13T07:04:40.804Z,16.63
2017-12-13T07:07:07.107Z,11.67
2017-12-13T07:09:34.162Z,15.10
2017-12-13T07:12:00.444Z,13.17
2017-12-13T07:14:26.707Z,13.93
2017-12-13T07:16:53.737Z,11.07
2017-12-13T07:19:20.730Z,12.07
2017-12-13T07:21:46.986Z,18.90
2017-12-13T07:24:13.288Z,19.00
2017-12-13T07:26:40.292Z,32.80
2017-12-13T07:29:06.559Z,21.73
2017-12-13T07:31:32.895Z,15.97
2017-12-13T07:33:59.172Z,16.50
2017-12-13T07:36:28.675Z,15.43
2017-12-13T07:38:55.036Z,12.10
2017-12-13T07:41:21.309Z,17.37
2017-12-13T07:43:47.567Z,15.00
2017-12-13T07:46:13.868Z,15.70
2017-12-13T07:48:40.138Z,14.60
2017-12-13T07:51:07.139Z,15.43
2017-12-13T07:53:33.448Z,18.13
2017-12-13T07:55:59.736Z,17.20
2017-12-13T07:58:26.027Z,17.83
2017-12-13T08:00:53.001Z,16.10
2017-12-13T08:03:19.286Z,11.23
2017-12-13T08:05:45.574Z,10.60
2017-12-13T08:08:12.598Z,15.40
2017-12-13T08:10:38.880Z,13.53
2017-12-13T08:13:05.149Z,19.57
2017-12-13T08:15:32.269Z,13.83
2017-12-13T08:17:59.278Z,17.27
2017-12-13T08:20:25.557Z,22.37
2017-12-13T08:22:51.839Z,14.07
2017-12-13T08:25:18.868Z,20.57
2017-12-13T08:27:45.968Z,21.60
2017-12-13T08:30:12.301Z,19.33
2017-12-13T08:32:38.555Z,14.53
2017-12-13T08:35:04.864Z,15.03
2017-12-13T08:37:31.173Z,18.30
2017-12-13T08:39:57.530Z,8.80
2017-12-13T08:42:23.815Z,10.50
2017-12-13T08:44:50.166Z,13.13
2017-12-13T08:47:16.466Z,16.43
2017-12-13T08:49:42.757Z,11.50
2017-12-13T08:52:09.060Z,10.90
2017-12-13T08:54:36.107Z,6.43
2017-12-13T08:57:02.398Z,7.33
2017-12-13T08:59:29.432Z,11.47
2017-12-13T09:01:56.479Z,6.13
2017-12-13T09:04:23.491Z,12.30
2017-12-13T09:06:49.799Z,9.27
2017-12-13T09:09:16.087Z,6.47
2017-12-13T09:11:42.371Z,11.30
2017-12-13T09:14:08.757Z,9.73
2017-12-13T09:16:35.036Z,10.70
2017-12-13T09:19:01.347Z,8.00
2017-12-13T09:21:27.680Z,10.13
2017-12-13T09:23:53.972Z,9.13
2017-12-13T09:26:21.015Z,6.33
2017-12-13T09:28:47.320Z,7.13
2017-12-13T09:31:14.005Z,6.93
2017-12-13T09:33:41.051Z,8.20
2017-12-13T09:36:07.380Z,6.87
2017-12-13T09:38:33.664Z,10.47
2017-12-13T09:41:00.725Z,7.63
2017-12-13T09:43:27.023Z,6.03
2017-12-13T09:45:54.052Z,8.47
2017-12-13T09:48:21.127Z,6.13
2017-12-13T09:50:47.458Z,6.47
2017-12-13T09:53:13.771Z,5.73
2017-12-13T09:55:40.097Z,4.47
2017-12-13T09:58:06.758Z,5.80
2017-12-13T10:00:33.798Z,11.17
2017-12-13T10:03:00.093Z,9.20
2017-12-13T10:05:27.456Z,3.83
2017-12-13T10:07:53.752Z,4.73
2017-12-13T10:10:20.806Z,7.70
2017-12-13T10:12:47.101Z,3.10
2017-12-13T10:15:14.131Z,9.63
2017-12-13T10:17:40.396Z,8.20
2017-12-13T10:20:07.435Z,5.60
2017-12-13T10:22:33.709Z,4.30
2017-12-13T10:24:59.996Z,5.40
2017-12-13T10:27:26.303Z,5.67
2017-12-13T10:29:52.571Z,5.60
2017-12-13T10:32:18.852Z,8.93
2017-12-13T10:34:45.945Z,4.17
2017-12-13T10:37:12.215Z,5.20
2017-12-13T10:39:39.241Z,3.67
2017-12-13T10:42:06.280Z,6.60
2017-12-13T10:44:33.296Z,10.73
2017-12-13T10:46:59.583Z,4.30
2017-12-13T10:49:25.876Z,6.10
2017-12-13T10:51:52.146Z,4.80
2017-12-13T10:54:18.417Z,2.93
2017-12-13T10:56:44.726Z,6.03
2017-12-13T10:59:11.043Z,6.10
2017-12-13T11:01:37.353Z,7.17
2017-12-13T11:04:03.688Z,3.50
2017-12-13T11:06:30.017Z,5.10
2017-12-13T11:08:56.299Z,2.67
2017-12-13T11:11:22.633Z,5.00
2017-12-13T11:13:48.937Z,3.10
2017-12-13T11:16:15.223Z,6.33
2017-12-13T11:18:41.572Z,4.57
2017-12-13T11:21:07.864Z,5.50
2017-12-13T11:23:34.168Z,3.67
2017-12-13T11:26:00.491Z,4.47
2017-12-13T11:28:26.797Z,5.43
2017-12-13T11:30:53.134Z,1.97
2017-12-13T11:33:19.475Z,6.20
2017-12-13T11:35:45.759Z,5.57
2017-12-13T11:38:12.043Z,2.23
2017-12-13T11:40:39.162Z,3.93
2017-12-13T11:43:05.492Z,4.93
2017-12-13T11:45:32.534Z,4.47
2017-12-13T11:47:58.858Z,4.10
2017-12-13T11:50:25.895Z,2.17
2017-12-13T11:52:54.967Z,2.93
2017-12-13T11:55:22.011Z,4.43
2017-12-13T11:57:48.311Z,6.00
2017-12-13T12:00:15.377Z,2.70
2017-12-13T12:02:41.694Z,6.20
2017-12-13T12:05:07.976Z,4.63
2017-12-13T12:07:35.039Z,3.47
2017-12-13T12:10:01.357Z,2.97
2017-12-13T12:12:27.644Z,2.33
2017-12-13T12:14:54.693Z,4.70
2017-12-13T12:17:20.995Z,1.73
2017-12-13T12:19:48.021Z,2.13
2017-12-13T12:22:15.059Z,6.23
2017-12-13T12:24:42.149Z,2.73
2017-12-13T12:27:08.516Z,4.40
2017-12-13T12:29:35.574Z,1.63
2017-12-13T12:32:01.894Z,3.93
2017-12-13T12:34:28.200Z,4.00
2017-12-13T12:36:54.487Z,2.97
2017-12-13T12:39:21.559Z,7.90
2017-12-13T12:41:47.838Z,5.63
2017-12-13T12:44:14.855Z,5.23
2017-12-13T12:46:41.149Z,5.10
2017-12-13T12:49:07.433Z,3.77
2017-12-13T12:51:33.703Z,2.07
2017-12-13T12:54:00.008Z,3.57
2017-12-13T12:56:26.296Z,2.57
2017-12-13T12:58:52.580Z,2.47
2017-12-13T13:01:18.882Z,7.80
2017-12-13T13:03:45.192Z,2.13
2017-12-13T13:06:12.253Z,3.73
2017-12-13T13:08:38.624Z,3.87
2017-12-13T13:11:05.019Z,1.87
2017-12-13T13:13:31.295Z,1.30
2017-12-13T13:15:57.627Z,3.27
2017-12-13T13:18:23.949Z,2.77
2017-12-13T13:20:50.248Z,4.53
2017-12-13T13:23:16.584Z,1.67
2017-12-13T13:25:42.878Z,4.93
2017-12-13T13:28:09.198Z,2.73
2017-12-13T13:30:35.536Z,2.77
2017-12-13T13:33:01.832Z,4.60
2017-12-13T13:35:28.116Z,3.20
2017-12-13T13:37:55.176Z,2.40
2017-12-13T13:40:21.483Z,5.07
2017-12-13T13:42:47.758Z,4.30
2017-12-13T13:45:14.234Z,4.93
2017-12-13T13:47:40.492Z,6.10
2017-12-13T13:50:06.755Z,10.20
2017-12-13T13:52:33.046Z,6.10
2017-12-13T13:55:00.048Z,3.60
2017-12-13T13:57:26.305Z,1.90
2017-12-13T13:59:52.651Z,4.13
2017-12-13T14:02:18.916Z,2.97
2017-12-13T14:04:45.982Z,9.40
2017-12-13T14:07:12.307Z,11.20
2017-12-13T14:09:38.567Z,4.03
2017-12-13T14:12:04.832Z,1.93
2017-12-13T14:14:31.119Z,5.60
2017-12-13T14:16:57.401Z,7.67
2017-12-13T14:19:23.675Z,1.30
2017-12-13T14:21:50.004Z,1.33
2017-12-13T14:24:16.401Z,3.40
2017-12-13T14:26:42.688Z,2.33
2017-12-13T14:29:09.739Z,2.33
2017-12-13T14:31:35.996Z,4.00
2017-12-13T14:34:02.271Z,3.90
2017-12-13T14:36:28.639Z,1.67
2017-12-13T14:38:54.923Z,2.03
2017-12-13T14:41:21.219Z,2.03
2017-12-13T14:43:47.510Z,3.73
2017-12-13T14:46:14.516Z,2.57
2017-12-13T14:48:40.807Z,4.67
2017-12-13T14:51:07.108Z,2.87
2017-12-13T14:53:33.379Z,3.43
2017-12-13T14:55:59.630Z,2.77
2017-12-13T14:58:25.961Z,3.23
2017-12-13T15:00:52.218Z,2.37
2017-12-13T15:03:18.493Z,3.03
2017-12-13T15:05:44.812Z,2.70
2017-12-13T15:08:11.083Z,2.17
2017-12-13T15:10:38.169Z,5.47
2017-12-13T15:13:04.548Z,5.23
2017-12-13T15:15:30.903Z,2.93
2017-12-13T15:17:57.224Z,6.87
2017-12-13T15:20:23.531Z,4.00
2017-12-13T15:22:49.792Z,3.00
2017-12-13T15:25:16.061Z,7.40
2017-12-13T15:27:42.400Z,4.93
2017-12-13T15:30:08.676Z,4.27
2017-12-13T15:32:35.012Z,5.57
2017-12-13T15:35:01.309Z,6.57
2017-12-13T15:37:27.581Z,5.73
2017-12-13T15:39:54.599Z,4.20
2017-12-13T15:42:20.960Z,4.90
2017-12-13T15:44:47.226Z,3.13
2017-12-13T15:47:13.494Z,4.53
2017-12-13T15:49:39.885Z,4.77
2017-12-13T15:52:06.993Z,4.03
2017-12-13T15:54:33.269Z,4.30
2017-12-13T15:56:59.555Z,4.27
2017-12-13T15:59:26.636Z,4.07
2017-12-13T16:01:52.957Z,4.87
2017-12-13T16:04:19.757Z,3.40
2017-12-13T16:06:46.076Z,4.00
2017-12-13T16:09:12.352Z,4.40
2017-12-13T16:11:39.419Z,4.33
2017-12-13T16:14:05.826Z,3.93
2017-12-13T16:16:42.436Z,4.17
2017-12-13T16:19:09.186Z,5.43
2017-12-13T16:21:51.211Z,4.50
2017-12-13T16:24:17.493Z,4.97
2017-12-13T16:29:19.405Z,5.13
2017-12-13T16:31:45.791Z,4.27
2017-12-13T16:34:12.251Z,4.07
2017-12-13T16:36:38.739Z,4.53
2017-12-13T16:39:05.102Z,3.90
2017-12-13T16:41:31.927Z,4.00
2017-12-13T16:43:58.272Z,4.37
2017-12-13T16:46:24.611Z,4.30
2017-12-13T16:48:50.914Z,4.17
2017-12-13T16:51:17.324Z,4.13
2017-12-13T16:53:43.624Z,4.57
2017-12-13T16:56:10.174Z,4.33
2017-12-13T16:58:36.604Z,8.73
2017-12-13T17:01:03.016Z,6.07
2017-12-13T17:03:29.324Z,7.10
2017-12-13T17:05:55.630Z,5.10
2017-12-13T17:08:22.144Z,5.83
2017-12-13T17:10:48.740Z,5.23
2017-12-13T17:13:15.063Z,5.13
2017-12-13T17:15:41.406Z,4.50
2017-12-13T17:18:07.984Z,5.70
2017-12-13T17:20:34.286Z,4.53
2017-12-13T17:23:00.759Z,5.37
2017-12-13T17:25:27.051Z,6.93
2017-12-13T17:27:54.244Z,3.47
2017-12-13T17:30:20.644Z,3.70
2017-12-13T17:32:47.062Z,3.73
2017-12-13T17:35:13.406Z,5.03
2017-12-13T17:37:39.699Z,3.27
2017-12-13T17:40:06.906Z,2.87
2017-12-13T17:42:34.163Z,3.63
2017-12-13T17:45:00.633Z,3.73
2017-12-13T17:47:27.004Z,3.90
2017-12-13T17:49:53.284Z,4.07
2017-12-13T17:52:20.499Z,3.50
2017-12-13T17:54:46.829Z,9.10
2017-12-13T17:57:13.147Z,4.50
2017-12-13T17:59:39.445Z,4.60
2017-12-13T18:02:05.753Z,3.40
2017-12-13T18:04:32.064Z,3.33
2017-12-13T18:06:58.398Z,6.57
2017-12-13T18:09:24.752Z,3.50
2017-12-13T18:11:51.119Z,3.40
2017-12-13T18:14:17.438Z,3.80
2017-12-13T18:16:43.763Z,3.40
2017-12-13T18:19:10.039Z,4.40
2017-12-13T18:21:36.308Z,7.40
2017-12-13T18:26:58.968Z,2.93
2017-12-13T18:29:25.360Z,3.30
2017-12-13T18:31:52.410Z,2.90
2017-12-13T18:34:19.086Z,3.23
2017-12-13T18:36:45.501Z,3.03
2017-12-13T18:39:12.366Z,2.97
2017-12-13T18:41:44.612Z,2.40
2017-12-13T18:44:10.981Z,2.80
2017-12-13T18:46:37.256Z,2.20
2017-12-13T18:49:03.562Z,2.57
2017-12-13T18:51:29.840Z,2.73
2017-12-13T18:53:56.719Z,2.60
2017-12-13T18:56:23.079Z,2.97
2017-12-13T18:58:49.383Z,1.83
2017-12-13T19:01:15.704Z,3.17
2017-12-13T19:03:42.192Z,3.07
2017-12-13T19:06:08.516Z,2.23
2017-12-13T19:08:34.805Z,2.60
2017-12-13T19:11:01.141Z,3.43
2017-12-13T19:13:27.443Z,5.17
2017-12-13T19:15:53.746Z,2.10
2017-12-13T19:18:20.845Z,2.73
2017-12-13T19:20:47.145Z,2.73
2017-12-13T19:23:13.422Z,2.63
2017-12-13T19:25:39.750Z,4.20
2017-12-13T19:28:06.107Z,7.33
2017-12-13T19:30:32.466Z,6.73
2017-12-13T19:32:58.828Z,3.67
2017-12-13T19:35:25.112Z,3.63
2017-12-13T19:37:51.400Z,4.23
2017-12-13T19:40:18.423Z,5.03
2017-12-13T19:42:45.469Z,3.63
2017-12-13T19:45:12.539Z,5.93
2017-12-13T19:47:38.855Z,4.60
2017-12-13T19:50:05.182Z,4.87
2017-12-13T19:52:31.463Z,4.20
2017-12-13T19:54:57.824Z,4.50
2017-12-13T19:57:24.106Z,4.37
2017-12-13T19:59:50.394Z,4.47
2017-12-13T20:02:17.423Z,3.73
2017-12-13T20:04:44.454Z,3.33
2017-12-13T20:07:11.517Z,7.47
2017-12-13T20:09:37.821Z,7.87
2017-12-13T20:12:04.125Z,4.80
2017-12-13T20:14:30.387Z,2.57
2017-12-13T20:16:56.711Z,2.43
2017-12-13T20:19:22.978Z,1.60
2017-12-13T20:21:49.251Z,2.10
2017-12-13T20:24:15.556Z,3.80
2017-12-13T20:26:41.823Z,2.90
2017-12-13T20:29:09.104Z,2.77
2017-12-13T20:31:35.447Z,3.07
2017-12-13T20:34:01.712Z,3.00
2017-12-13T20:36:27.989Z,2.90
2017-12-13T20:38:55.121Z,9.70
2017-12-13T20:41:21.384Z,3.30
2017-12-13T20:43:47.665Z,2.90
2017-12-13T20:46:16.515Z,4.00
2017-12-13T20:48:42.884Z,2.23
2017-12-13T20:51:09.256Z,3.90
2017-12-13T20:53:35.542Z,2.00
2017-12-13T20:56:01.925Z,2.63
2017-12-13T20:58:28.247Z,2.30
2017-12-13T21:00:55.299Z,1.80
2017-12-13T21:03:21.628Z,1.63
2017-12-13T21:05:47.948Z,2.13
2017-12-13T21:08:14.264Z,1.43
2017-12-13T21:10:40.532Z,2.53
2017-12-13T21:13:06.860Z,1.67
2017-12-13T21:15:33.131Z,1.67
2017-12-13T21:17:59.406Z,1.97
2017-12-13T21:20:25.676Z,3.30
2017-12-13T21:22:52.810Z,1.70
2017-12-13T21:25:19.193Z,3.80
2017-12-13T21:27:45.497Z,1.90
2017-12-13T21:30:11.807Z,2.90
2017-12-13T21:32:38.139Z,3.10
2017-12-13T21:35:04.489Z,3.73
2017-12-13T21:37:31.529Z,2.47
2017-12-13T21:39:58.583Z,1.60
2017-12-13T21:42:24.881Z,3.07
2017-12-13T21:44:51.912Z,4.37
2017-12-13T21:47:18.705Z,1.50
2017-12-13T21:49:46.235Z,2.30
2017-12-13T21:52:12.706Z,3.73
2017-12-13T21:54:40.164Z,1.93
2017-12-13T21:57:06.431Z,2.63
2017-12-13T21:59:32.722Z,1.80
2017-12-13T22:01:58.995Z,2.20
2017-12-13T22:04:25.265Z,4.73
2017-12-13T22:06:51.572Z,3.87
2017-12-13T22:09:17.841Z,2.40
2017-12-13T22:11:44.188Z,2.20
2017-12-13T22:14:10.610Z,2.57
2017-12-13T22:16:36.897Z,2.43
2017-12-13T22:19:03.176Z,2.73
2017-12-13T22:21:29.471Z,5.20
2017-12-13T22:23:55.740Z,2.57
2017-12-13T22:26:22.048Z,2.83
2017-12-13T22:28:48.882Z,5.73
2017-12-13T22:31:15.330Z,2.77
2017-12-13T22:33:41.632Z,2.03
2017-12-13T22:36:08.473Z,2.57
2017-12-13T22:38:34.818Z,2.00
2017-12-13T22:41:01.099Z,2.17
2017-12-13T22:43:27.533Z,1.97
2017-12-13T22:45:54.610Z,1.40
2017-12-13T22:48:21.710Z,2.20
2017-12-13T22:50:48.024Z,1.87
2017-12-13T22:53:14.329Z,8.50
2017-12-13T22:55:40.600Z,1.07
2017-12-13T22:58:07.651Z,6.60
2017-12-13T23:00:46.186Z,4.93
2017-12-13T23:03:12.522Z,2.27
2017-12-13T23:05:38.852Z,1.80
2017-12-13T23:08:05.892Z,2.97
2017-12-13T23:10:33.083Z,1.47
2017-12-13T23:12:59.370Z,4.43
2017-12-13T23:15:25.672Z,3.20
2017-12-13T23:17:52.738Z,1.47
2017-12-13T23:20:19.035Z,1.50
2017-12-13T23:22:45.339Z,1.23
2017-12-13T23:25:11.651Z,1.67
2017-12-13T23:27:38.695Z,2.97
2017-12-13T23:30:05.008Z,2.90
2017-12-13T23:32:31.666Z,1.70
2017-12-13T23:34:57.940Z,4.63
2017-12-13T23:37:24.221Z,2.73
2017-12-13T23:39:50.516Z,2.77
2017-12-13T23:42:16.812Z,1.70
2017-12-13T23:44:43.113Z,2.10
2017-12-13T23:47:09.428Z,0.43
2017-12-13T23:49:35.683Z,1.23
2017-12-13T23:52:01.954Z,1.20
2017-12-13T23:54:28.276Z,1.60
2017-12-13T23:56:54.566Z,0.97
2017-12-13T23:59:21.572Z,1.77
